Tutti
Ingalls Fld Airport (Hot Springs, VA) HSP Meteo
|
Hot Springs, VA (KHSP)
Cielo sereno
Venti leggeri |
|
23 °C |
There is no TAF data available at HSP or any nearby airports.
Storico METAR HSP recente
| Date | Time (EDT) | Flight Rules | Wind Dir. | Speed | Type | Height AGL (ft) | Visibility | Temp (°C) | Temp (°F) | Dew Point (°C) | Dew Point (°F) | Rel. Humid. | Pressure | Density Altitude | Remarks |
|---|---|---|---|---|---|---|---|---|---|---|---|---|---|---|---|
| 04-set | 01:15 | VFR | 250° | 9 kt | 10 miles | 23° | 73° | 20° | 68° | 80% | 30.21 in Hg | 5.175 ft | |||
| 04-set | 00:55 | VFR | 250° | 8 kt | 10 miles | 23° | 73° | 19° | 66° | 80% | 30.22 in Hg | 5.165 ft | |||
| 04-set | 00:35 | VFR | 260° | 8 kt | 10 miles | 23° | 73° | 20° | 68° | 79% | 30.22 in Hg | 5.165 ft | |||
| 04-set | 00:15 | VFR | 260° | 8 kt | 10 miles | 24° | 75° | 20° | 68° | 78% | 30.22 in Hg | 5.285 ft | |||
| 03-set | 23:55 | VFR | 260° | 7 kt | 10 miles | 24° | 75° | 20° | 68° | 77% | 30.22 in Hg | 5.285 ft | |||
| 03-set | 23:35 | VFR | 270° | 9 kt | 10 miles | 24° | 75° | 19° | 66° | 76% | 30.23 in Hg | 5.275 ft | |||
| 03-set | 23:15 | VFR | 260° | 9 kt | 10 miles | 24° | 75° | 19° | 66° | 75% | 30.23 in Hg | 5.275 ft | |||
| 03-set | 22:55 | VFR | 260° | 7 kt | 10 miles | 24° | 75° | 19° | 66° | 73% | 30.23 in Hg | 5.275 ft | |||
| 03-set | 22:35 | VFR | 250° | 8 kt | 10 miles | 24° | 75° | 19° | 66° | 72% | 30.22 in Hg | 5.285 ft | |||
| 03-set | 22:15 | VFR | 250° | 8 kt | 10 miles | 25° | 77° | 19° | 66° | 71% | 30.22 in Hg | 5.405 ft | |||
| 03-set | 21:55 | VFR | 260° | 8 kt | 10 miles | 25° | 77° | 19° | 66° | 71% | 30.22 in Hg | 5.405 ft | |||
| 03-set | 21:35 | VFR | 250° | 8 kt | 10 miles | 25° | 77° | 19° | 66° | 70% | 30.22 in Hg | 5.405 ft | |||
| 03-set | 21:15 | VFR | 260° | 9 kt | 10 miles | 24° | 75° | 19° | 66° | 72% | 30.22 in Hg | 5.285 ft | |||
| 03-set | 20:55 | VFR | 260° | 8 kt | 10 miles | 25° | 77° | 19° | 66° | 70% | 30.22 in Hg | 5.405 ft | |||
| 03-set | 20:35 | VFR | 270° | 8 kt | 10 miles | 25° | 77° | 19° | 66° | 71% | 30.22 in Hg | 5.405 ft | |||
| 03-set | 20:15 | VFR | 270° | 7 kt | 10 miles | 25° | 77° | 19° | 66° | 70% | 30.22 in Hg | 5.405 ft | |||
| 03-set | 19:55 | VFR | 270° | 8 kt | 10 miles | 25° | 77° | 19° | 66° | 69% | 30.22 in Hg | 5.405 ft | |||
| 03-set | 19:35 | VFR | 250° | 6 kt | 10 miles | 25° | 77° | 19° | 66° | 70% | 30.21 in Hg | 5.415 ft | |||
| 03-set | 19:15 | VFR | 250° | 8 kt | 10 miles | 26° | 78° | 20° | 68° | 69% | 30.20 in Hg | 5.545 ft | |||
| 03-set | 18:55 | VFR | 250° | 8 kt | 10 miles | 26° | 78° | 20° | 68° | 67% | 30.19 in Hg | 5.555 ft | |||
| 03-set | 18:35 | VFR | 250° | 7 kt | 10 miles | 27° | 80° | 20° | 68° | 65% | 30.19 in Hg | 5.675 ft | |||
| 03-set | 18:15 | VFR | 250° | 7 kt | 10 miles |
27° | 80° | 19° | 66° | 63% | 30.19 in Hg | 5.675 ft | |||
| 03-set | 17:55 | VFR | 240° | 9 kt | 7 miles | 28° | 82° | 19° | 66° | 60% | 30.19 in Hg | 5.795 ft | |||
| 03-set | 17:35 | VFR | 230° | 8 kt | 7 miles | 28° | 82° | 20° | 68° | 61% | 30.20 in Hg | 5.785 ft |
Accedi
| Il tuo browser non è supportato. fai l'upgrade del tuo browser |
